Adams, Kentucky
Current Conditions -  °F | °C
As of 9:35 AM on Wednesday 26 Nov 2014 (Local Time) from KSJS Reporting Station
Overcast Overcast  
Wind Chill: 37°   Ceiling: 1800
Heat Index: 37°   Visibility: 10mi
Dew Point: 30°   Wind: 3mph
Humidity: 75%   Direction: 320°NW
Pressure: 30.07"   Gusts: NA
Location:  38.05°N, 82.71°W
Report Text: KSJS 261435Z AUTO 32003KT 10SM OVC018 03/M01 A3007 RMK AO2 T00291011
Loading
Personal Weather Stations






























Interactive Weather Map New forecast layout! Learn more

10-Day Weather Forecast

Advertisements
Track Severe Weather on mobile